This is the latest recevied weather packets stored in our database for station/object N8ESC. If no packets are shown the sender has not sent any weather packets the latest 10 day(s).
| Time | Temp. | Humidity | Pressure | Rain* | Wind** | Luminosity | Snow |
|---|---|---|---|---|---|---|---|
| 1777403728 | 12.78° C | 58% | 1007.1 hPa | 0 mm | - | 281 W/m² | - |
| 1777403426 | 12.22° C | 59% | 1006.9 hPa | 0 mm | - | 339 W/m² | - |
| 1777402212 | 12.22° C | 59% | 1006.5 hPa | 0 mm | - | 286 W/m² | - |
| 1777401308 | 12.78° C | 58% | 1006.4 hPa | 0 mm | - | 552 W/m² | - |
| 1777400091 | 11.67° C | 63% | 1006.3 hPa | 0 mm | - | 323 W/m² | - |
| 1777398578 | 11.11° C | 64% | 1006 hPa | 0 mm | - | 780 W/m² | - |
| 1777397972 | 11.11° C | 64% | 1005.8 hPa | 0 mm | - | 373 W/m² | - |
| 1777397667 | 11.11° C | 64% | 1005.8 hPa | 0 mm | - | 375 W/m² | - |
| 1777397060 | 11.11° C | 64% | 1005.8 hPa | 0 mm | - | 344 W/m² | - |
| 1777396454 | 11.11° C | 64% | 1005.6 hPa | 0 mm | - | 303 W/m² | - |
| 1777396150 | 10.56° C | 66% | 1005.5 hPa | 0 mm | - | 528 W/m² | - |
| 1777394936 | 10.56° C | 66% | 1005.3 hPa | 0 mm | - | 315 W/m² | - |
| 1777392813 | 10° C | 67% | 1005 hPa | 0 mm | - | 272 W/m² | - |
| 1777390076 | 10° C | 70% | 1003.9 hPa | 0 mm | - | 299 W/m² | - |
| 1777389774 | 10° C | 69% | 1003.7 hPa | 0 mm | - | 284 W/m² | - |
| 1777389470 | 10° C | 70% | 1003.6 hPa | 0 mm | - | 246 W/m² | - |
| 1777389168 | 10° C | 69% | 1003.4 hPa | 0 mm | - | 266 W/m² | - |
| 1777387046 | 8.89° C | 73% | 1002.8 hPa | 0 mm | - | 226 W/m² | - |
| 1777386440 | 9.44° C | 73% | 1002.7 hPa | 0 mm | - | 197 W/m² | - |
| 1777385833 | 8.89° C | 74% | 1002.4 hPa | 0 mm | - | 224 W/m² | - |
| 1777385530 | 8.89° C | 73% | 1002.3 hPa | 0 mm | - | 271 W/m² | - |
| 1777384621 | 8.89° C | 75% | 1002 hPa | 0 mm | - | 126 W/m² | - |
| 1777383409 | 8.89° C | 78% | 1001.4 hPa | 0 mm | - | 93 W/m² | - |
| 1777383104 | 8.89° C | 78% | 1001.1 hPa | 0 mm | - | 137 W/m² | - |
| 1777382802 | 8.89° C | 78% | 1001.2 hPa | 0 mm | - | 112 W/m² | - |
* Rain latest hour (hover to see other rain measurements)
** Current wind speed in m/s (hover to see current wind gust speed)